sensor_id;sensor_type;location;lat;lon;timestamp;P1;durP1;ratioP1;P2;durP2;ratioP2
25780;SDS011;13626;48.128;11.628;2023-02-18T00:00:05;3.42;;;2.15;;
25780;SDS011;13626;48.128;11.628;2023-02-18T00:02:32;3.65;;;2.45;;
25780;SDS011;13626;48.128;11.628;2023-02-18T00:05:00;2.58;;;1.95;;
25780;SDS011;13626;48.128;11.628;2023-02-18T00:07:27;3.53;;;1.90;;
25780;SDS011;13626;48.128;11.628;2023-02-18T00:09:54;4.15;;;2.30;;
25780;SDS011;13626;48.128;11.628;2023-02-18T00:12:21;3.70;;;2.00;;
25780;SDS011;13626;48.128;11.628;2023-02-18T00:14:48;2.97;;;2.22;;
25780;SDS011;13626;48.128;11.628;2023-02-18T00:17:15;3.20;;;2.00;;
25780;SDS011;13626;48.128;11.628;2023-02-18T00:19:43;4.30;;;2.35;;
25780;SDS011;13626;48.128;11.628;2023-02-18T00:22:10;3.45;;;2.00;;
25780;SDS011;13626;48.128;11.628;2023-02-18T00:24:38;3.92;;;2.22;;
25780;SDS011;13626;48.128;11.628;2023-02-18T00:27:05;3.50;;;2.20;;
25780;SDS011;13626;48.128;11.628;2023-02-18T00:29:33;2.70;;;2.13;;
25780;SDS011;13626;48.128;11.628;2023-02-18T00:32:00;3.08;;;2.10;;
25780;SDS011;13626;48.128;11.628;2023-02-18T00:34:27;4.35;;;2.20;;
25780;SDS011;13626;48.128;11.628;2023-02-18T00:36:54;6.47;;;2.17;;
25780;SDS011;13626;48.128;11.628;2023-02-18T00:39:22;3.33;;;2.10;;
25780;SDS011;13626;48.128;11.628;2023-02-18T00:41:49;3.35;;;2.22;;
25780;SDS011;13626;48.128;11.628;2023-02-18T00:44:16;5.03;;;2.30;;
25780;SDS011;13626;48.128;11.628;2023-02-18T00:46:43;3.70;;;2.20;;
25780;SDS011;13626;48.128;11.628;2023-02-18T00:49:13;1.98;;;1.73;;
25780;SDS011;13626;48.128;11.628;2023-02-18T00:51:40;5.00;;;2.15;;
25780;SDS011;13626;48.128;11.628;2023-02-18T00:54:07;2.63;;;2.10;;
25780;SDS011;13626;48.128;11.628;2023-02-18T00:56:35;2.95;;;1.75;;
25780;SDS011;13626;48.128;11.628;2023-02-18T00:59:02;1.95;;;1.70;;
25780;SDS011;13626;48.128;11.628;2023-02-18T01:01:29;4.03;;;1.90;;
25780;SDS011;13626;48.128;11.628;2023-02-18T01:03:57;3.92;;;1.90;;
25780;SDS011;13626;48.128;11.628;2023-02-18T01:06:24;4.18;;;1.95;;
25780;SDS011;13626;48.128;11.628;2023-02-18T01:08:51;3.40;;;1.77;;
25780;SDS011;13626;48.128;11.628;2023-02-18T01:11:18;2.80;;;1.80;;
25780;SDS011;13626;48.128;11.628;2023-02-18T01:13:45;1.90;;;1.65;;
25780;SDS011;13626;48.128;11.628;2023-02-18T01:16:13;2.22;;;1.70;;
25780;SDS011;13626;48.128;11.628;2023-02-18T01:18:40;2.22;;;1.58;;
25780;SDS011;13626;48.128;11.628;2023-02-18T01:21:07;3.40;;;1.95;;
25780;SDS011;13626;48.128;11.628;2023-02-18T01:23:36;4.55;;;2.08;;
25780;SDS011;13626;48.128;11.628;2023-02-18T01:26:03;2.33;;;1.70;;
25780;SDS011;13626;48.128;11.628;2023-02-18T01:28:31;3.10;;;1.88;;
25780;SDS011;13626;48.128;11.628;2023-02-18T01:31:02;4.22;;;2.00;;
25780;SDS011;13626;48.128;11.628;2023-02-18T01:33:30;2.65;;;2.03;;
25780;SDS011;13626;48.128;11.628;2023-02-18T01:35:57;3.22;;;2.22;;
25780;SDS011;13626;48.128;11.628;2023-02-18T01:38:24;3.75;;;1.98;;
25780;SDS011;13626;48.128;11.628;2023-02-18T01:40:52;2.92;;;2.10;;
25780;SDS011;13626;48.128;11.628;2023-02-18T01:43:19;3.28;;;2.30;;
25780;SDS011;13626;48.128;11.628;2023-02-18T01:48:50;3.67;;;2.53;;
25780;SDS011;13626;48.128;11.628;2023-02-18T01:51:18;3.45;;;2.30;;
25780;SDS011;13626;48.128;11.628;2023-02-18T01:53:48;4.32;;;2.40;;
25780;SDS011;13626;48.128;11.628;2023-02-18T01:56:22;3.78;;;2.33;;
25780;SDS011;13626;48.128;11.628;2023-02-18T01:58:50;6.88;;;2.20;;
25780;SDS011;13626;48.128;11.628;2023-02-18T02:01:18;3.25;;;2.13;;
25780;SDS011;13626;48.128;11.628;2023-02-18T02:03:46;3.75;;;2.72;;
25780;SDS011;13626;48.128;11.628;2023-02-18T02:06:16;3.05;;;2.55;;
25780;SDS011;13626;48.128;11.628;2023-02-18T02:08:44;3.95;;;2.40;;
25780;SDS011;13626;48.128;11.628;2023-02-18T02:16:43;2.83;;;2.20;;
25780;SDS011;13626;48.128;11.628;2023-02-18T02:27:18;3.53;;;2.08;;
25780;SDS011;13626;48.128;11.628;2023-02-18T02:34:47;2.80;;;2.03;;
25780;SDS011;13626;48.128;11.628;2023-02-18T02:45:03;2.15;;;1.92;;
25780;SDS011;13626;48.128;11.628;2023-02-18T02:47:32;2.28;;;1.75;;
25780;SDS011;13626;48.128;11.628;2023-02-18T02:50:03;2.17;;;1.80;;
25780;SDS011;13626;48.128;11.628;2023-02-18T02:52:33;4.22;;;1.75;;
25780;SDS011;13626;48.128;11.628;2023-02-18T02:55:07;2.95;;;1.80;;
25780;SDS011;13626;48.128;11.628;2023-02-18T03:00:05;1.75;;;1.50;;
25780;SDS011;13626;48.128;11.628;2023-02-18T03:10:39;1.98;;;1.58;;
25780;SDS011;13626;48.128;11.628;2023-02-18T03:15:47;3.13;;;1.63;;
25780;SDS011;13626;48.128;11.628;2023-02-18T03:18:17;3.60;;;1.58;;
25780;SDS011;13626;48.128;11.628;2023-02-18T03:23:18;1.88;;;1.60;;
25780;SDS011;13626;48.128;11.628;2023-02-18T03:25:46;1.27;;;1.17;;
25780;SDS011;13626;48.128;11.628;2023-02-18T03:28:16;1.30;;;1.20;;
25780;SDS011;13626;48.128;11.628;2023-02-18T03:30:52;1.40;;;1.30;;
25780;SDS011;13626;48.128;11.628;2023-02-18T03:33:31;2.92;;;1.60;;
25780;SDS011;13626;48.128;11.628;2023-02-18T03:35:59;2.08;;;1.50;;
25780;SDS011;13626;48.128;11.628;2023-02-18T03:38:28;1.75;;;1.40;;
25780;SDS011;13626;48.128;11.628;2023-02-18T03:40:57;1.27;;;1.15;;
25780;SDS011;13626;48.128;11.628;2023-02-18T03:43:24;1.70;;;1.20;;
25780;SDS011;13626;48.128;11.628;2023-02-18T03:45:51;1.65;;;1.35;;
25780;SDS011;13626;48.128;11.628;2023-02-18T03:48:19;2.80;;;1.42;;
25780;SDS011;13626;48.128;11.628;2023-02-18T03:50:46;2.25;;;1.40;;
25780;SDS011;13626;48.128;11.628;2023-02-18T03:53:13;1.45;;;1.20;;
25780;SDS011;13626;48.128;11.628;2023-02-18T03:55:40;1.55;;;1.35;;
25780;SDS011;13626;48.128;11.628;2023-02-18T03:58:07;3.10;;;1.50;;
25780;SDS011;13626;48.128;11.628;2023-02-18T04:00:35;1.85;;;1.27;;
25780;SDS011;13626;48.128;11.628;2023-02-18T04:03:02;1.38;;;1.27;;
25780;SDS011;13626;48.128;11.628;2023-02-18T04:05:29;1.23;;;1.10;;
25780;SDS011;13626;48.128;11.628;2023-02-18T04:07:56;2.20;;;1.40;;
25780;SDS011;13626;48.128;11.628;2023-02-18T04:10:23;2.75;;;1.40;;
25780;SDS011;13626;48.128;11.628;2023-02-18T04:12:50;1.42;;;1.20;;
25780;SDS011;13626;48.128;11.628;2023-02-18T04:15:18;2.15;;;1.58;;
25780;SDS011;13626;48.128;11.628;2023-02-18T04:17:45;1.63;;;1.50;;
25780;SDS011;13626;48.128;11.628;2023-02-18T04:20:12;1.88;;;1.50;;
25780;SDS011;13626;48.128;11.628;2023-02-18T04:22:39;2.08;;;1.52;;
25780;SDS011;13626;48.128;11.628;2023-02-18T04:25:07;1.67;;;1.30;;
25780;SDS011;13626;48.128;11.628;2023-02-18T04:27:34;2.13;;;1.60;;
25780;SDS011;13626;48.128;11.628;2023-02-18T04:30:02;2.15;;;1.30;;
25780;SDS011;13626;48.128;11.628;2023-02-18T04:32:29;2.13;;;1.42;;
25780;SDS011;13626;48.128;11.628;2023-02-18T04:34:57;2.22;;;1.70;;
25780;SDS011;13626;48.128;11.628;2023-02-18T04:37:24;3.10;;;1.25;;
25780;SDS011;13626;48.128;11.628;2023-02-18T04:39:51;3.03;;;1.67;;
25780;SDS011;13626;48.128;11.628;2023-02-18T04:42:18;2.72;;;1.75;;
25780;SDS011;13626;48.128;11.628;2023-02-18T04:44:45;1.90;;;1.38;;
25780;SDS011;13626;48.128;11.628;2023-02-18T04:47:13;1.38;;;1.27;;
25780;SDS011;13626;48.128;11.628;2023-02-18T04:49:40;2.33;;;1.60;;
25780;SDS011;13626;48.128;11.628;2023-02-18T04:52:07;1.50;;;1.40;;
25780;SDS011;13626;48.128;11.628;2023-02-18T04:54:34;1.45;;;1.35;;
25780;SDS011;13626;48.128;11.628;2023-02-18T04:57:01;3.28;;;1.67;;
25780;SDS011;13626;48.128;11.628;2023-02-18T04:59:29;1.95;;;1.75;;
25780;SDS011;13626;48.128;11.628;2023-02-18T05:01:56;2.80;;;1.48;;
25780;SDS011;13626;48.128;11.628;2023-02-18T05:04:23;1.35;;;1.25;;
25780;SDS011;13626;48.128;11.628;2023-02-18T05:06:50;1.63;;;1.40;;
25780;SDS011;13626;48.128;11.628;2023-02-18T05:09:18;1.58;;;1.20;;
25780;SDS011;13626;48.128;11.628;2023-02-18T05:11:45;2.25;;;1.35;;
25780;SDS011;13626;48.128;11.628;2023-02-18T05:14:12;1.90;;;1.40;;
25780;SDS011;13626;48.128;11.628;2023-02-18T05:16:40;1.50;;;1.38;;
25780;SDS011;13626;48.128;11.628;2023-02-18T05:19:07;1.48;;;1.38;;
25780;SDS011;13626;48.128;11.628;2023-02-18T05:21:34;1.30;;;1.20;;
25780;SDS011;13626;48.128;11.628;2023-02-18T05:24:02;1.33;;;1.23;;
25780;SDS011;13626;48.128;11.628;2023-02-18T05:26:30;1.58;;;1.25;;
25780;SDS011;13626;48.128;11.628;2023-02-18T05:28:57;2.83;;;1.20;;
25780;SDS011;13626;48.128;11.628;2023-02-18T05:31:24;1.17;;;1.05;;
25780;SDS011;13626;48.128;11.628;2023-02-18T05:33:51;2.10;;;1.10;;
25780;SDS011;13626;48.128;11.628;2023-02-18T05:36:18;1.40;;;1.02;;
25780;SDS011;13626;48.128;11.628;2023-02-18T05:38:45;1.15;;;0.90;;
25780;SDS011;13626;48.128;11.628;2023-02-18T05:41:13;1.00;;;0.90;;
25780;SDS011;13626;48.128;11.628;2023-02-18T05:43:40;1.00;;;0.90;;
25780;SDS011;13626;48.128;11.628;2023-02-18T05:46:26;1.25;;;0.93;;
25780;SDS011;13626;48.128;11.628;2023-02-18T05:48:53;1.05;;;0.95;;
25780;SDS011;13626;48.128;11.628;2023-02-18T05:51:20;1.20;;;0.90;;
25780;SDS011;13626;48.128;11.628;2023-02-18T05:53:48;0.88;;;0.82;;
25780;SDS011;13626;48.128;11.628;2023-02-18T05:56:15;0.90;;;0.80;;
25780;SDS011;13626;48.128;11.628;2023-02-18T05:58:42;0.70;;;0.70;;
25780;SDS011;13626;48.128;11.628;2023-02-18T06:01:09;0.73;;;0.73;;
25780;SDS011;13626;48.128;11.628;2023-02-18T06:03:36;1.10;;;0.52;;
25780;SDS011;13626;48.128;11.628;2023-02-18T06:06:04;1.30;;;1.00;;
25780;SDS011;13626;48.128;11.628;2023-02-18T06:08:31;2.17;;;0.80;;
25780;SDS011;13626;48.128;11.628;2023-02-18T06:10:58;0.70;;;0.70;;
25780;SDS011;13626;48.128;11.628;2023-02-18T06:13:26;0.70;;;0.68;;
25780;SDS011;13626;48.128;11.628;2023-02-18T06:15:53;1.48;;;0.65;;
25780;SDS011;13626;48.128;11.628;2023-02-18T06:18:20;0.40;;;0.38;;
25780;SDS011;13626;48.128;11.628;2023-02-18T06:20:48;0.70;;;0.70;;
25780;SDS011;13626;48.128;11.628;2023-02-18T06:23:16;0.60;;;0.43;;
25780;SDS011;13626;48.128;11.628;2023-02-18T06:25:43;1.90;;;0.40;;
25780;SDS011;13626;48.128;11.628;2023-02-18T06:28:10;0.40;;;0.40;;
25780;SDS011;13626;48.128;11.628;2023-02-18T06:30:37;0.40;;;0.40;;
25780;SDS011;13626;48.128;11.628;2023-02-18T06:33:04;0.80;;;0.60;;
25780;SDS011;13626;48.128;11.628;2023-02-18T06:35:32;0.40;;;0.40;;
25780;SDS011;13626;48.128;11.628;2023-02-18T06:38:00;0.70;;;0.60;;
25780;SDS011;13626;48.128;11.628;2023-02-18T06:40:27;0.63;;;0.60;;
25780;SDS011;13626;48.128;11.628;2023-02-18T06:42:54;1.40;;;0.60;;
25780;SDS011;13626;48.128;11.628;2023-02-18T06:45:21;1.67;;;0.55;;
25780;SDS011;13626;48.128;11.628;2023-02-18T06:47:49;2.15;;;0.60;;
25780;SDS011;13626;48.128;11.628;2023-02-18T06:50:16;0.57;;;0.52;;
25780;SDS011;13626;48.128;11.628;2023-02-18T06:52:44;0.70;;;0.70;;
25780;SDS011;13626;48.128;11.628;2023-02-18T06:55:11;0.63;;;0.60;;
25780;SDS011;13626;48.128;11.628;2023-02-18T06:57:39;1.70;;;0.60;;
25780;SDS011;13626;48.128;11.628;2023-02-18T07:00:06;0.65;;;0.57;;
25780;SDS011;13626;48.128;11.628;2023-02-18T07:02:33;0.45;;;0.45;;
25780;SDS011;13626;48.128;11.628;2023-02-18T07:05:01;0.95;;;0.52;;
25780;SDS011;13626;48.128;11.628;2023-02-18T07:07:28;0.95;;;0.70;;
25780;SDS011;13626;48.128;11.628;2023-02-18T07:09:55;0.88;;;0.70;;
25780;SDS011;13626;48.128;11.628;2023-02-18T07:12:22;0.50;;;0.40;;
25780;SDS011;13626;48.128;11.628;2023-02-18T07:14:49;0.82;;;0.50;;
25780;SDS011;13626;48.128;11.628;2023-02-18T07:17:17;0.60;;;0.60;;
25780;SDS011;13626;48.128;11.628;2023-02-18T07:19:44;1.13;;;0.75;;
25780;SDS011;13626;48.128;11.628;2023-02-18T07:22:11;0.52;;;0.35;;
25780;SDS011;13626;48.128;11.628;2023-02-18T07:24:39;0.52;;;0.52;;
25780;SDS011;13626;48.128;11.628;2023-02-18T07:27:06;2.83;;;0.60;;
25780;SDS011;13626;48.128;11.628;2023-02-18T07:29:33;0.47;;;0.40;;
25780;SDS011;13626;48.128;11.628;2023-02-18T07:32:00;0.63;;;0.43;;
25780;SDS011;13626;48.128;11.628;2023-02-18T07:34:28;1.25;;;0.50;;
25780;SDS011;13626;48.128;11.628;2023-02-18T07:36:55;1.48;;;0.50;;
25780;SDS011;13626;48.128;11.628;2023-02-18T07:39:22;0.88;;;0.30;;
25780;SDS011;13626;48.128;11.628;2023-02-18T07:41:49;1.52;;;0.30;;
25780;SDS011;13626;48.128;11.628;2023-02-18T07:44:16;0.85;;;0.40;;
25780;SDS011;13626;48.128;11.628;2023-02-18T07:46:43;5.28;;;0.70;;
25780;SDS011;13626;48.128;11.628;2023-02-18T07:49:13;3.17;;;0.60;;
25780;SDS011;13626;48.128;11.628;2023-02-18T07:51:40;0.57;;;0.57;;
25780;SDS011;13626;48.128;11.628;2023-02-18T07:54:07;1.05;;;0.93;;
25780;SDS011;13626;48.128;11.628;2023-02-18T07:56:35;1.23;;;0.55;;
25780;SDS011;13626;48.128;11.628;2023-02-18T07:59:02;10.00;;;1.40;;
25780;SDS011;13626;48.128;11.628;2023-02-18T08:01:29;3.33;;;0.80;;
25780;SDS011;13626;48.128;11.628;2023-02-18T08:03:56;11.95;;;1.48;;
25780;SDS011;13626;48.128;11.628;2023-02-18T08:06:28;2.50;;;0.50;;
25780;SDS011;13626;48.128;11.628;2023-02-18T08:08:56;1.75;;;0.55;;
25780;SDS011;13626;48.128;11.628;2023-02-18T08:11:24;1.20;;;0.60;;
25780;SDS011;13626;48.128;11.628;2023-02-18T08:13:51;0.90;;;0.70;;
25780;SDS011;13626;48.128;11.628;2023-02-18T08:16:19;1.65;;;0.52;;
25780;SDS011;13626;48.128;11.628;2023-02-18T08:18:47;0.30;;;0.30;;
25780;SDS011;13626;48.128;11.628;2023-02-18T08:21:16;3.20;;;0.77;;
25780;SDS011;13626;48.128;11.628;2023-02-18T08:23:43;1.00;;;0.60;;
25780;SDS011;13626;48.128;11.628;2023-02-18T08:26:11;2.78;;;0.57;;
25780;SDS011;13626;48.128;11.628;2023-02-18T08:28:38;0.75;;;0.50;;
25780;SDS011;13626;48.128;11.628;2023-02-18T08:31:06;0.45;;;0.45;;
25780;SDS011;13626;48.128;11.628;2023-02-18T08:33:33;0.73;;;0.50;;
25780;SDS011;13626;48.128;11.628;2023-02-18T08:36:01;0.80;;;0.60;;
25780;SDS011;13626;48.128;11.628;2023-02-18T08:38:33;2.55;;;0.70;;
25780;SDS011;13626;48.128;11.628;2023-02-18T08:41:01;2.67;;;0.63;;
25780;SDS011;13626;48.128;11.628;2023-02-18T08:43:29;1.67;;;0.70;;
25780;SDS011;13626;48.128;11.628;2023-02-18T08:45:57;1.58;;;0.70;;
25780;SDS011;13626;48.128;11.628;2023-02-18T08:48:25;1.05;;;0.80;;
25780;SDS011;13626;48.128;11.628;2023-02-18T08:50:52;1.00;;;0.85;;
25780;SDS011;13626;48.128;11.628;2023-02-18T08:53:20;1.90;;;0.85;;
25780;SDS011;13626;48.128;11.628;2023-02-18T08:55:47;0.68;;;0.68;;
25780;SDS011;13626;48.128;11.628;2023-02-18T08:58:14;0.70;;;0.70;;
25780;SDS011;13626;48.128;11.628;2023-02-18T09:00:42;1.40;;;0.63;;
25780;SDS011;13626;48.128;11.628;2023-02-18T09:03:11;2.85;;;0.80;;
25780;SDS011;13626;48.128;11.628;2023-02-18T09:05:39;2.28;;;0.80;;
25780;SDS011;13626;48.128;11.628;2023-02-18T09:08:06;1.10;;;0.90;;
25780;SDS011;13626;48.128;11.628;2023-02-18T09:10:33;2.05;;;0.75;;
25780;SDS011;13626;48.128;11.628;2023-02-18T09:13:00;1.92;;;1.27;;
25780;SDS011;13626;48.128;11.628;2023-02-18T09:15:28;1.17;;;0.93;;
25780;SDS011;13626;48.128;11.628;2023-02-18T09:17:57;5.72;;;1.02;;
25780;SDS011;13626;48.128;11.628;2023-02-18T09:20:25;1.25;;;0.63;;
25780;SDS011;13626;48.128;11.628;2023-02-18T09:22:52;3.60;;;1.00;;
25780;SDS011;13626;48.128;11.628;2023-02-18T09:25:19;1.17;;;0.82;;
25780;SDS011;13626;48.128;11.628;2023-02-18T09:27:46;0.88;;;0.50;;
25780;SDS011;13626;48.128;11.628;2023-02-18T09:30:14;4.07;;;1.00;;
25780;SDS011;13626;48.128;11.628;2023-02-18T09:32:41;3.00;;;1.10;;
25780;SDS011;13626;48.128;11.628;2023-02-18T09:35:08;2.38;;;1.23;;
25780;SDS011;13626;48.128;11.628;2023-02-18T09:37:35;3.03;;;0.90;;
25780;SDS011;13626;48.128;11.628;2023-02-18T09:40:05;3.00;;;1.40;;
25780;SDS011;13626;48.128;11.628;2023-02-18T09:42:32;1.38;;;0.90;;
25780;SDS011;13626;48.128;11.628;2023-02-18T09:45:02;0.70;;;0.70;;
25780;SDS011;13626;48.128;11.628;2023-02-18T09:47:36;4.30;;;1.10;;
25780;SDS011;13626;48.128;11.628;2023-02-18T09:50:06;1.95;;;0.82;;
25780;SDS011;13626;48.128;11.628;2023-02-18T09:52:35;1.90;;;0.75;;
25780;SDS011;13626;48.128;11.628;2023-02-18T09:55:38;1.95;;;0.85;;
25780;SDS011;13626;48.128;11.628;2023-02-18T09:58:01;6.28;;;1.00;;
25780;SDS011;13626;48.128;11.628;2023-02-18T10:00:42;3.75;;;0.70;;
25780;SDS011;13626;48.128;11.628;2023-02-18T10:05:37;3.42;;;0.90;;
25780;SDS011;13626;48.128;11.628;2023-02-18T10:08:12;0.60;;;0.60;;
25780;SDS011;13626;48.128;11.628;2023-02-18T10:10:44;1.90;;;0.90;;
25780;SDS011;13626;48.128;11.628;2023-02-18T10:13:16;8.60;;;1.52;;
25780;SDS011;13626;48.128;11.628;2023-02-18T10:15:43;2.08;;;0.95;;
25780;SDS011;13626;48.128;11.628;2023-02-18T10:18:15;3.58;;;2.20;;
25780;SDS011;13626;48.128;11.628;2023-02-18T10:20:43;2.22;;;1.08;;
25780;SDS011;13626;48.128;11.628;2023-02-18T10:23:11;2.70;;;0.93;;
25780;SDS011;13626;48.128;11.628;2023-02-18T10:25:40;1.40;;;0.80;;
25780;SDS011;13626;48.128;11.628;2023-02-18T10:28:09;4.53;;;1.10;;
25780;SDS011;13626;48.128;11.628;2023-02-18T10:30:45;2.63;;;0.98;;
25780;SDS011;13626;48.128;11.628;2023-02-18T10:46:33;1.38;;;0.80;;
25780;SDS011;13626;48.128;11.628;2023-02-18T10:51:31;2.03;;;0.90;;
25780;SDS011;13626;48.128;11.628;2023-02-18T10:53:59;3.33;;;1.10;;
25780;SDS011;13626;48.128;11.628;2023-02-18T10:56:34;3.90;;;0.88;;
25780;SDS011;13626;48.128;11.628;2023-02-18T10:59:12;4.15;;;1.00;;
25780;SDS011;13626;48.128;11.628;2023-02-18T11:01:40;6.95;;;1.55;;
25780;SDS011;13626;48.128;11.628;2023-02-18T11:04:13;0.90;;;0.70;;
25780;SDS011;13626;48.128;11.628;2023-02-18T11:06:43;1.65;;;0.80;;
25780;SDS011;13626;48.128;11.628;2023-02-18T11:09:22;2.50;;;1.00;;
25780;SDS011;13626;48.128;11.628;2023-02-18T11:11:50;1.63;;;0.65;;
25780;SDS011;13626;48.128;11.628;2023-02-18T11:14:39;2.72;;;0.90;;
25780;SDS011;13626;48.128;11.628;2023-02-18T11:19:45;0.70;;;0.70;;
25780;SDS011;13626;48.128;11.628;2023-02-18T11:22:18;1.67;;;0.70;;
25780;SDS011;13626;48.128;11.628;2023-02-18T11:24:45;0.63;;;0.60;;
25780;SDS011;13626;48.128;11.628;2023-02-18T11:29:53;2.60;;;0.90;;
25780;SDS011;13626;48.128;11.628;2023-02-18T11:32:24;2.10;;;0.73;;
25780;SDS011;13626;48.128;11.628;2023-02-18T11:34:52;1.23;;;0.73;;
25780;SDS011;13626;48.128;11.628;2023-02-18T11:37:19;1.75;;;0.88;;
25780;SDS011;13626;48.128;11.628;2023-02-18T11:39:49;5.10;;;0.95;;
25780;SDS011;13626;48.128;11.628;2023-02-18T11:42:18;1.88;;;1.08;;
25780;SDS011;13626;48.128;11.628;2023-02-18T11:55:02;3.70;;;0.85;;
25780;SDS011;13626;48.128;11.628;2023-02-18T11:57:30;3.30;;;0.80;;
25780;SDS011;13626;48.128;11.628;2023-02-18T11:59:58;1.90;;;0.60;;
25780;SDS011;13626;48.128;11.628;2023-02-18T12:02:31;2.78;;;1.30;;
25780;SDS011;13626;48.128;11.628;2023-02-18T12:05:04;0.97;;;0.60;;
25780;SDS011;13626;48.128;11.628;2023-02-18T12:10:58;1.67;;;0.88;;
25780;SDS011;13626;48.128;11.628;2023-02-18T12:16:10;4.85;;;1.25;;
25780;SDS011;13626;48.128;11.628;2023-02-18T12:26:27;2.38;;;1.02;;
25780;SDS011;13626;48.128;11.628;2023-02-18T12:44:42;14.82;;;2.35;;
25780;SDS011;13626;48.128;11.628;2023-02-18T12:47:16;5.35;;;1.38;;
25780;SDS011;13626;48.128;11.628;2023-02-18T12:49:48;8.00;;;1.20;;
25780;SDS011;13626;48.128;11.628;2023-02-18T12:52:21;2.92;;;0.60;;
25780;SDS011;13626;48.128;11.628;2023-02-18T13:05:32;16.17;;;1.88;;
25780;SDS011;13626;48.128;11.628;2023-02-18T13:13:20;3.25;;;0.70;;
25780;SDS011;13626;48.128;11.628;2023-02-18T13:18:22;1.70;;;1.10;;
25780;SDS011;13626;48.128;11.628;2023-02-18T13:20:51;4.53;;;0.95;;
25780;SDS011;13626;48.128;11.628;2023-02-18T13:23:23;3.60;;;1.00;;
25780;SDS011;13626;48.128;11.628;2023-02-18T13:25:54;1.75;;;0.90;;
25780;SDS011;13626;48.128;11.628;2023-02-18T13:35:57;1.73;;;0.70;;
25780;SDS011;13626;48.128;11.628;2023-02-18T13:41:02;3.00;;;1.17;;
25780;SDS011;13626;48.128;11.628;2023-02-18T13:43:31;1.83;;;0.95;;
25780;SDS011;13626;48.128;11.628;2023-02-18T13:48:39;3.85;;;1.00;;
25780;SDS011;13626;48.128;11.628;2023-02-18T13:51:09;1.10;;;0.80;;
25780;SDS011;13626;48.128;11.628;2023-02-18T13:53:38;1.33;;;0.98;;
25780;SDS011;13626;48.128;11.628;2023-02-18T13:56:26;0.60;;;0.60;;
25780;SDS011;13626;48.128;11.628;2023-02-18T13:58:58;1.05;;;0.95;;
25780;SDS011;13626;48.128;11.628;2023-02-18T14:04:30;0.68;;;0.68;;
25780;SDS011;13626;48.128;11.628;2023-02-18T14:12:34;1.98;;;1.05;;
25780;SDS011;13626;48.128;11.628;2023-02-18T14:22:49;18.55;;;1.58;;
25780;SDS011;13626;48.128;11.628;2023-02-18T14:27:43;15.65;;;1.45;;
25780;SDS011;13626;48.128;11.628;2023-02-18T14:32:41;1.45;;;1.10;;
25780;SDS011;13626;48.128;11.628;2023-02-18T14:35:17;2.17;;;0.95;;
25780;SDS011;13626;48.128;11.628;2023-02-18T14:43:06;2.60;;;1.05;;
25780;SDS011;13626;48.128;11.628;2023-02-18T14:50:40;1.17;;;0.90;;
25780;SDS011;13626;48.128;11.628;2023-02-18T14:53:13;3.47;;;1.30;;
25780;SDS011;13626;48.128;11.628;2023-02-18T14:55:44;2.00;;;1.17;;
25780;SDS011;13626;48.128;11.628;2023-02-18T14:58:29;3.35;;;0.90;;
25780;SDS011;13626;48.128;11.628;2023-02-18T15:00:56;3.83;;;1.00;;
25780;SDS011;13626;48.128;11.628;2023-02-18T15:03:25;2.35;;;1.00;;
25780;SDS011;13626;48.128;11.628;2023-02-18T15:05:52;2.13;;;1.30;;
25780;SDS011;13626;48.128;11.628;2023-02-18T15:08:21;3.40;;;1.17;;
25780;SDS011;13626;48.128;11.628;2023-02-18T15:15:43;1.02;;;0.93;;
25780;SDS011;13626;48.128;11.628;2023-02-18T15:18:19;1.25;;;1.10;;
25780;SDS011;13626;48.128;11.628;2023-02-18T15:20:47;4.47;;;1.00;;
25780;SDS011;13626;48.128;11.628;2023-02-18T15:23:15;1.52;;;1.00;;
25780;SDS011;13626;48.128;11.628;2023-02-18T15:25:45;3.85;;;0.93;;
25780;SDS011;13626;48.128;11.628;2023-02-18T15:28:26;3.50;;;1.13;;
25780;SDS011;13626;48.128;11.628;2023-02-18T15:30:55;2.45;;;1.00;;
25780;SDS011;13626;48.128;11.628;2023-02-18T15:33:22;1.35;;;0.82;;
25780;SDS011;13626;48.128;11.628;2023-02-18T15:35:50;1.15;;;1.05;;
25780;SDS011;13626;48.128;11.628;2023-02-18T15:38:18;1.05;;;0.75;;
25780;SDS011;13626;48.128;11.628;2023-02-18T15:40:46;2.33;;;0.90;;
25780;SDS011;13626;48.128;11.628;2023-02-18T15:43:17;1.33;;;0.90;;
25780;SDS011;13626;48.128;11.628;2023-02-18T15:45:46;2.13;;;1.00;;
25780;SDS011;13626;48.128;11.628;2023-02-18T15:48:26;3.90;;;1.33;;
25780;SDS011;13626;48.128;11.628;2023-02-18T15:51:01;4.05;;;0.60;;
25780;SDS011;13626;48.128;11.628;2023-02-18T15:53:42;1.00;;;0.82;;
25780;SDS011;13626;48.128;11.628;2023-02-18T15:56:15;12.57;;;1.75;;
25780;SDS011;13626;48.128;11.628;2023-02-18T15:58:45;1.38;;;0.60;;
25780;SDS011;13626;48.128;11.628;2023-02-18T16:01:25;1.02;;;0.70;;
25780;SDS011;13626;48.128;11.628;2023-02-18T16:03:53;2.22;;;0.77;;
25780;SDS011;13626;48.128;11.628;2023-02-18T16:06:22;2.95;;;0.77;;
25780;SDS011;13626;48.128;11.628;2023-02-18T16:11:37;2.75;;;0.90;;
25780;SDS011;13626;48.128;11.628;2023-02-18T16:14:05;2.15;;;0.90;;
25780;SDS011;13626;48.128;11.628;2023-02-18T16:16:33;1.90;;;0.85;;
25780;SDS011;13626;48.128;11.628;2023-02-18T16:19:02;2.85;;;0.85;;
25780;SDS011;13626;48.128;11.628;2023-02-18T16:21:39;0.95;;;0.70;;
25780;SDS011;13626;48.128;11.628;2023-02-18T16:24:25;1.23;;;0.88;;
25780;SDS011;13626;48.128;11.628;2023-02-18T16:26:53;3.92;;;0.80;;
25780;SDS011;13626;48.128;11.628;2023-02-18T16:29:26;3.47;;;0.90;;
25780;SDS011;13626;48.128;11.628;2023-02-18T16:32:00;0.90;;;0.70;;
25780;SDS011;13626;48.128;11.628;2023-02-18T16:34:27;1.17;;;0.70;;
25780;SDS011;13626;48.128;11.628;2023-02-18T16:36:54;2.88;;;1.27;;
25780;SDS011;13626;48.128;11.628;2023-02-18T16:39:41;1.48;;;0.93;;
25780;SDS011;13626;48.128;11.628;2023-02-18T16:42:09;1.80;;;0.80;;
25780;SDS011;13626;48.128;11.628;2023-02-18T16:44:36;1.10;;;1.00;;
25780;SDS011;13626;48.128;11.628;2023-02-18T16:47:04;0.60;;;0.60;;
25780;SDS011;13626;48.128;11.628;2023-02-18T16:49:31;1.23;;;0.73;;
25780;SDS011;13626;48.128;11.628;2023-02-18T16:52:00;1.05;;;0.85;;
25780;SDS011;13626;48.128;11.628;2023-02-18T16:54:31;2.00;;;0.80;;
25780;SDS011;13626;48.128;11.628;2023-02-18T16:56:59;1.25;;;0.90;;
25780;SDS011;13626;48.128;11.628;2023-02-18T16:59:26;1.48;;;0.88;;
25780;SDS011;13626;48.128;11.628;2023-02-18T17:01:54;0.95;;;0.70;;
25780;SDS011;13626;48.128;11.628;2023-02-18T17:04:21;1.00;;;0.90;;
25780;SDS011;13626;48.128;11.628;2023-02-18T17:06:48;5.88;;;0.95;;
25780;SDS011;13626;48.128;11.628;2023-02-18T17:09:17;2.33;;;0.90;;
25780;SDS011;13626;48.128;11.628;2023-02-18T17:11:46;2.03;;;0.80;;
25780;SDS011;13626;48.128;11.628;2023-02-18T17:14:14;0.93;;;0.80;;
25780;SDS011;13626;48.128;11.628;2023-02-18T17:16:46;2.55;;;0.85;;
25780;SDS011;13626;48.128;11.628;2023-02-18T17:19:14;1.40;;;0.73;;
25780;SDS011;13626;48.128;11.628;2023-02-18T17:21:42;3.38;;;1.80;;
25780;SDS011;13626;48.128;11.628;2023-02-18T17:24:13;3.92;;;1.05;;
25780;SDS011;13626;48.128;11.628;2023-02-18T17:26:41;1.60;;;0.85;;
25780;SDS011;13626;48.128;11.628;2023-02-18T17:29:08;4.07;;;1.08;;
25780;SDS011;13626;48.128;11.628;2023-02-18T17:31:39;1.63;;;1.08;;
25780;SDS011;13626;48.128;11.628;2023-02-18T17:34:11;1.83;;;0.73;;
25780;SDS011;13626;48.128;11.628;2023-02-18T17:36:39;12.00;;;1.98;;
25780;SDS011;13626;48.128;11.628;2023-02-18T17:39:14;3.25;;;1.65;;
25780;SDS011;13626;48.128;11.628;2023-02-18T17:41:42;1.88;;;0.90;;